Time,TemperatureF,DewpointF,PressureIn,WindDirection,WindDirectionDegrees,WindSpeedMPH,WindSpeedGustMPH,Humidity,HourlyPrecipIn,Conditions,Clouds,dailyrainin,SoftwareType,DateUTC
2013-12-10 00:00:00,45.7,45.7,29.92,South,181,0.0,0.0,100,0.00,,---,0.18,VWS V14.01,2013-12-10 05:00:00,
2013-12-10 00:10:00,45.7,45.7,29.92,South,181,0.0,0.0,100,0.00,,---,0.00,VWS V14.01,2013-12-10 05:10:00,
2013-12-10 00:20:00,45.7,45.7,29.91,South,181,0.0,0.0,100,0.00,,---,0.00,VWS V14.01,2013-12-10 05:20:00,
2013-12-10 00:30:00,45.8,45.8,29.91,South,181,0.0,0.0,100,0.00,,---,0.00,VWS V14.01,2013-12-10 05:30:00,
2013-12-10 00:40:00,45.8,45.8,29.91,South,181,0.0,0.0,100,0.00,,---,0.00,VWS V14.01,2013-12-10 05:40:00,
2013-12-10 00:50:00,45.8,45.8,29.90,South,181,0.0,0.0,100,0.00,,---,0.00,VWS V14.01,2013-12-10 05:50:00,
2013-12-10 01:00:00,45.8,45.8,29.88,South,181,0.0,0.0,100,0.00,,---,0.00,VWS V14.01,2013-12-10 06:00:00,
2013-12-10 01:10:00,45.8,45.8,29.88,South,181,0.0,0.0,100,0.01,,---,0.01,VWS V14.01,2013-12-10 06:10:00,
2013-12-10 01:20:00,45.8,45.8,29.89,South,179,0.0,0.0,100,0.01,,---,0.01,VWS V14.01,2013-12-10 06:20:00,
2013-12-10 01:30:00,45.8,45.8,29.87,South,179,0.0,0.0,100,0.01,,---,0.01,VWS V14.01,2013-12-10 06:30:00,
2013-12-10 01:40:00,45.8,45.8,29.87,South,179,0.0,0.0,100,0.01,,---,0.01,VWS V14.01,2013-12-10 06:40:00,
2013-12-10 01:50:00,45.8,45.8,29.87,South,179,0.0,0.0,100,0.03,,---,0.03,VWS V14.01,2013-12-10 06:50:00,
2013-12-10 02:00:00,46.0,46.0,29.86,South,179,0.0,0.0,100,0.06,,---,0.06,VWS V14.01,2013-12-10 07:00:00,
2013-12-10 02:10:00,46.0,46.0,29.86,South,179,0.0,0.0,100,0.07,,---,0.07,VWS V14.01,2013-12-10 07:10:00,
2013-12-10 02:20:00,46.0,46.0,29.86,South,179,0.0,0.0,100,0.07,,---,0.08,VWS V14.01,2013-12-10 07:20:00,
2013-12-10 02:30:00,46.0,46.0,29.87,South,178,1.0,2.0,100,0.09,,---,0.10,VWS V14.01,2013-12-10 07:30:00,
2013-12-10 02:40:00,46.0,46.0,29.87,South,178,0.0,1.0,100,0.10,,---,0.11,VWS V14.01,2013-12-10 07:40:00,
2013-12-10 02:50:00,46.0,46.0,29.85,South,178,0.0,0.0,100,0.11,,---,0.12,VWS V14.01,2013-12-10 07:50:00,
2013-12-10 03:00:00,46.0,46.0,29.85,South,178,0.0,0.0,100,0.09,,---,0.12,VWS V14.01,2013-12-10 08:00:00,
2013-12-10 03:10:00,46.0,46.0,29.85,South,178,0.0,0.0,100,0.09,,---,0.15,VWS V14.01,2013-12-10 08:10:00,
2013-12-10 03:20:00,46.1,46.1,29.84,South,178,0.0,0.0,100,0.09,,---,0.16,VWS V14.01,2013-12-10 08:20:00,
2013-12-10 03:30:00,46.1,46.1,29.84,South,171,0.0,0.0,100,0.09,,---,0.17,VWS V14.01,2013-12-10 08:30:00,
2013-12-10 03:40:00,46.1,46.1,29.84,South,171,0.0,0.0,100,0.07,,---,0.17,VWS V14.01,2013-12-10 08:40:00,
2013-12-10 03:50:00,46.1,46.1,29.83,South,171,0.0,0.0,100,0.10,,---,0.21,VWS V14.01,2013-12-10 08:50:00,
2013-12-10 04:00:00,46.1,46.1,29.82,South,171,0.0,0.0,100,0.11,,---,0.23,VWS V14.01,2013-12-10 09:00:00,
2013-12-10 04:10:00,46.1,46.1,29.82,South,172,0.0,0.0,100,0.13,,---,0.25,VWS V14.01,2013-12-10 09:10:00,
2013-12-10 04:20:00,46.1,46.1,29.82,South,172,0.0,0.0,100,0.12,,---,0.27,VWS V14.01,2013-12-10 09:20:00,
2013-12-10 04:30:00,46.1,46.1,29.82,South,171,0.0,0.0,100,0.12,,---,0.28,VWS V14.01,2013-12-10 09:30:00,
2013-12-10 04:40:00,46.2,46.2,29.82,South,172,0.0,0.0,100,0.14,,---,0.31,VWS V14.01,2013-12-10 09:40:00,
2013-12-10 04:50:00,46.2,46.2,29.81,South,171,0.0,0.0,100,0.16,,---,0.33,VWS V14.01,2013-12-10 09:50:00,
2013-12-10 05:00:00,46.2,46.2,29.80,South,171,0.0,0.0,100,0.12,,---,0.33,VWS V14.01,2013-12-10 10:00:00,
2013-12-10 05:10:00,46.2,46.2,29.80,South,172,0.0,0.0,100,0.10,,---,0.33,VWS V14.01,2013-12-10 10:10:00,
2013-12-10 05:20:00,46.2,46.2,29.80,South,171,0.0,0.0,100,0.08,,---,0.33,VWS V14.01,2013-12-10 10:20:00,
2013-12-10 05:30:00,46.2,46.2,29.80,South,171,0.0,0.0,100,0.06,,---,0.33,VWS V14.01,2013-12-10 10:30:00,
2013-12-10 05:40:00,46.2,46.2,29.80,South,172,0.0,0.0,100,0.06,,---,0.34,VWS V14.01,2013-12-10 10:40:00,
2013-12-10 05:50:00,46.2,46.2,29.80,South,172,0.0,0.0,100,0.03,,---,0.34,VWS V14.01,2013-12-10 10:50:00,
2013-12-10 06:00:00,46.2,46.2,29.79,South,172,0.0,0.0,100,0.01,,---,0.34,VWS V14.01,2013-12-10 11:00:00,
2013-12-10 06:10:00,46.2,46.2,29.79,South,172,0.0,0.0,100,0.01,,---,0.34,VWS V14.01,2013-12-10 11:10:00,
2013-12-10 06:20:00,46.2,46.2,29.80,South,172,0.0,0.0,100,0.01,,---,0.34,VWS V14.01,2013-12-10 11:20:00,
2013-12-10 06:30:00,46.2,46.2,29.80,South,172,0.0,0.0,100,0.01,,---,0.34,VWS V14.01,2013-12-10 11:30:00,
2013-12-10 06:40:00,46.2,46.2,29.80,South,172,0.0,0.0,100,0.01,,---,0.34,VWS V14.01,2013-12-10 11:40:00,
2013-12-10 06:50:00,46.2,46.2,29.80,South,175,0.0,0.0,100,0.00,,---,0.34,VWS V14.01,2013-12-10 11:50:00,
2013-12-10 07:00:00,46.2,46.2,29.79,West,261,0.0,1.0,100,0.00,,---,0.34,VWS V14.01,2013-12-10 12:00:00,
2013-12-10 07:10:00,46.2,46.2,29.79,West,268,0.0,3.0,100,0.00,,---,0.34,VWS V14.01,2013-12-10 12:10:00,
2013-12-10 07:20:00,46.2,46.2,29.79,West,268,0.0,0.0,100,0.00,,---,0.34,VWS V14.01,2013-12-10 12:20:00,
2013-12-10 07:30:00,46.1,46.1,29.79,West,280,0.0,3.0,100,0.00,,---,0.34,VWS V14.01,2013-12-10 12:30:00,
2013-12-10 07:40:00,46.1,46.1,29.79,West,280,0.0,2.0,100,0.01,,---,0.35,VWS V14.01,2013-12-10 12:40:00,
2013-12-10 07:50:00,46.0,46.0,29.79,NW,323,0.0,6.0,100,0.01,,---,0.35,VWS V14.01,2013-12-10 12:50:00,
2013-12-10 08:00:00,45.8,45.8,29.78,NW,323,0.0,0.0,100,0.01,,---,0.35,VWS V14.01,2013-12-10 13:00:00,
2013-12-10 08:10:00,45.7,45.7,29.78,NW,323,0.0,0.0,100,0.02,,---,0.36,VWS V14.01,2013-12-10 13:10:00,
2013-12-10 08:20:00,45.5,45.5,29.78,WNW,301,0.0,1.0,100,0.02,,---,0.36,VWS V14.01,2013-12-10 13:20:00,
2013-12-10 08:30:00,45.5,45.5,29.78,WNW,301,0.0,0.0,100,0.02,,---,0.36,VWS V14.01,2013-12-10 13:30:00,
2013-12-10 08:40:00,45.4,45.4,29.78,WNW,301,0.0,0.0,100,0.02,,---,0.36,VWS V14.01,2013-12-10 13:40:00,
2013-12-10 08:50:00,45.4,45.4,29.79,WNW,301,0.0,0.0,100,0.01,,---,0.36,VWS V14.01,2013-12-10 13:50:00,
2013-12-10 09:00:00,45.4,45.4,29.78,SE,141,0.0,3.0,100,0.01,,---,0.36,VWS V14.01,2013-12-10 14:00:00,
2013-12-10 09:10:00,45.1,45.1,29.78,NW,313,2.0,5.0,100,0.01,,---,0.36,VWS V14.01,2013-12-10 14:10:00,
2013-12-10 09:20:00,44.8,44.8,29.78,WNW,282,1.0,6.0,100,0.00,,---,0.36,VWS V14.01,2013-12-10 14:20:00,
2013-12-10 09:30:00,44.8,44.8,29.77,North,354,0.0,5.0,100,0.01,,---,0.37,VWS V14.01,2013-12-10 14:30:00,
2013-12-10 09:40:00,44.8,44.8,29.77,North,353,0.0,1.0,100,0.01,,---,0.37,VWS V14.01,2013-12-10 14:40:00,
2013-12-10 09:50:00,44.8,44.8,29.79,NW,316,0.0,5.0,100,0.02,,---,0.38,VWS V14.01,2013-12-10 14:50:00,
2013-12-10 10:00:00,44.9,44.9,29.81,WSW,254,0.0,0.0,100,0.03,,---,0.39,VWS V14.01,2013-12-10 15:00:00,
2013-12-10 10:10:00,44.8,44.8,29.81,West,277,0.0,3.0,100,0.04,,---,0.40,VWS V14.01,2013-12-10 15:10:00,
2013-12-10 10:20:00,44.8,44.8,29.81,West,277,0.0,2.0,100,0.04,,---,0.40,VWS V14.01,2013-12-10 15:20:00,
2013-12-10 10:30:00,44.9,44.9,29.80,West,277,0.0,2.0,100,0.04,,---,0.40,VWS V14.01,2013-12-10 15:30:00,
2013-12-10 10:40:00,44.9,44.9,29.80,WNW,289,0.0,6.0,100,0.03,,---,0.40,VWS V14.01,2013-12-10 15:40:00,
2013-12-10 10:50:00,44.9,44.9,29.81,NW,308,2.0,6.0,100,0.04,,---,0.41,VWS V14.01,2013-12-10 15:50:00,
2013-12-10 11:00:00,44.8,44.8,29.80,NW,305,0.0,3.0,100,0.05,,---,0.43,VWS V14.01,2013-12-10 16:00:00,
2013-12-10 11:10:00,44.8,44.8,29.80,SW,236,0.0,5.0,100,0.05,,---,0.44,VWS V14.01,2013-12-10 16:10:00,
2013-12-10 11:20:00,44.8,44.8,29.81,NW,305,0.0,5.0,100,0.05,,---,0.45,VWS V14.01,2013-12-10 16:20:00,
2013-12-10 11:30:00,44.6,44.6,29.81,NW,326,4.0,5.0,100,0.05,,---,0.45,VWS V14.01,2013-12-10 16:30:00,
2013-12-10 11:40:00,44.6,44.6,29.81,WNW,298,0.0,4.0,100,0.07,,---,0.47,VWS V14.01,2013-12-10 16:40:00,
2013-12-10 11:50:00,44.5,44.5,29.81,NW,322,0.0,2.0,100,0.08,,---,0.48,VWS V14.01,2013-12-10 16:50:00,
2013-12-10 12:00:00,44.2,44.2,29.81,West,274,0.0,3.0,100,0.07,,---,0.48,VWS V14.01,2013-12-10 17:00:00,
2013-12-10 12:10:00,43.9,43.9,29.81,WNW,291,0.0,6.0,100,0.06,,---,0.49,VWS V14.01,2013-12-10 17:10:00,
2013-12-10 12:20:00,43.6,43.6,29.82,NW,306,0.0,6.0,100,0.06,,---,0.50,VWS V14.01,2013-12-10 17:20:00,
2013-12-10 12:30:00,43.6,43.6,29.83,WNW,299,3.0,4.0,100,0.06,,---,0.51,VWS V14.01,2013-12-10 17:30:00,
2013-12-10 12:40:00,43.2,43.2,29.83,WNW,302,0.0,7.0,100,0.06,,---,0.51,VWS V14.01,2013-12-10 17:40:00,
2013-12-10 12:50:00,42.9,42.9,29.84,West,263,0.0,6.0,100,0.04,,---,0.51,VWS V14.01,2013-12-10 17:50:00,
2013-12-10 13:00:00,42.5,42.5,29.85,NW,311,0.0,8.0,100,0.03,,---,0.51,VWS V14.01,2013-12-10 18:00:00,
2013-12-10 13:10:00,42.5,42.5,29.85,NNW,329,2.0,7.0,100,0.03,,---,0.51,VWS V14.01,2013-12-10 18:10:00,
2013-12-10 13:20:00,42.3,42.3,29.86,NW,319,0.0,11.0,100,0.02,,---,0.51,VWS V14.01,2013-12-10 18:20:00,
2013-12-10 13:30:00,42.8,42.8,29.87,NNW,337,0.0,5.0,100,0.01,,---,0.51,VWS V14.01,2013-12-10 18:30:00,
2013-12-10 13:40:00,42.8,42.8,29.87,NNW,339,5.0,8.0,100,0.00,,---,0.51,VWS V14.01,2013-12-10 18:40:00,
2013-12-10 13:50:00,42.8,42.8,29.88,North,349,0.0,7.0,100,0.00,,---,0.51,VWS V14.01,2013-12-10 18:50:00,
2013-12-10 14:00:00,42.8,42.8,29.89,NNW,332,3.0,7.0,100,0.00,,---,0.51,VWS V14.01,2013-12-10 19:00:00,
2013-12-10 14:10:00,42.8,42.8,29.89,West,272,0.0,8.0,100,0.00,,---,0.51,VWS V14.01,2013-12-10 19:10:00,
2013-12-10 14:20:00,42.8,42.8,29.89,NNW,336,0.0,6.0,100,0.00,,---,0.51,VWS V14.01,2013-12-10 19:20:00,
2013-12-10 14:30:00,42.8,42.8,29.90,West,275,0.0,7.0,100,0.00,,---,0.51,VWS V14.01,2013-12-10 19:30:00,
2013-12-10 14:40:00,42.8,42.8,29.90,NNW,337,1.0,7.0,100,0.00,,---,0.51,VWS V14.01,2013-12-10 19:40:00,
2013-12-10 14:50:00,43.1,43.1,29.91,WSW,253,1.0,6.0,100,0.00,,---,0.51,VWS V14.01,2013-12-10 19:50:00,
2013-12-10 15:00:00,42.9,42.9,29.91,WNW,287,0.0,7.0,100,0.00,,---,0.51,VWS V14.01,2013-12-10 20:00:00,
2013-12-10 15:10:00,42.9,42.9,29.91,WSW,253,0.0,10.0,100,0.00,,---,0.51,VWS V14.01,2013-12-10 20:10:00,
2013-12-10 15:20:00,42.9,42.9,29.92,WSW,258,0.0,8.0,100,0.00,,---,0.51,VWS V14.01,2013-12-10 20:20:00,
2013-12-10 15:30:00,43.1,43.1,29.93,West,281,0.0,7.0,100,0.00,,---,0.51,VWS V14.01,2013-12-10 20:30:00,
2013-12-10 15:40:00,43.1,43.1,29.93,NW,318,0.0,10.0,100,0.00,,---,0.51,VWS V14.01,2013-12-10 20:40:00,
2013-12-10 15:50:00,43.1,43.1,29.94,WNW,302,0.0,5.0,100,0.00,,---,0.51,VWS V14.01,2013-12-10 20:50:00,
2013-12-10 16:00:00,43.1,43.1,29.95,NNW,328,0.0,3.0,100,0.00,,---,0.51,VWS V14.01,2013-12-10 21:00:00,
2013-12-10 16:10:00,43.2,43.2,29.95,NW,311,0.0,0.0,100,0.00,,---,0.51,VWS V14.01,2013-12-10 21:10:00,
2013-12-10 16:20:00,43.2,43.2,29.97,NW,311,0.0,0.0,100,0.00,,---,0.51,VWS V14.01,2013-12-10 21:20:00,
2013-12-10 16:30:00,43.2,43.2,29.97,NW,311,0.0,0.0,100,0.00,,---,0.51,VWS V14.01,2013-12-10 21:30:00,
2013-12-10 16:40:00,43.1,43.1,29.97,NW,311,0.0,0.0,100,0.00,,---,0.51,VWS V14.01,2013-12-10 21:40:00,
2013-12-10 16:50:00,42.9,42.9,29.98,NW,311,0.0,0.0,100,0.00,,---,0.51,VWS V14.01,2013-12-10 21:50:00,
2013-12-10 17:00:00,42.6,42.6,29.99,NW,311,0.0,0.0,100,0.00,,---,0.51,VWS V14.01,2013-12-10 22:00:00,
2013-12-10 17:10:00,42.3,42.3,29.99,NW,309,0.0,0.0,100,0.00,,---,0.51,VWS V14.01,2013-12-10 22:10:00,
2013-12-10 17:20:00,41.9,41.9,30.00,NW,309,0.0,0.0,100,0.00,,---,0.51,VWS V14.01,2013-12-10 22:20:00,
2013-12-10 17:30:00,41.5,41.5,30.00,NW,311,0.0,0.0,100,0.00,,---,0.51,VWS V14.01,2013-12-10 22:30:00,
2013-12-10 17:40:00,41.3,41.3,30.00,NW,309,0.0,0.0,100,0.00,,---,0.51,VWS V14.01,2013-12-10 22:40:00,
2013-12-10 17:50:00,41.1,41.1,30.02,NW,311,0.0,0.0,100,0.00,,---,0.51,VWS V14.01,2013-12-10 22:50:00,
2013-12-10 18:00:00,40.9,40.9,30.03,West,281,0.0,0.0,100,0.00,,---,0.51,VWS V14.01,2013-12-10 23:00:00,
2013-12-10 18:10:00,40.9,40.9,30.03,West,272,0.0,2.0,100,0.00,,---,0.51,VWS V14.01,2013-12-10 23:10:00,
2013-12-10 18:20:00,40.8,40.8,30.04,WSW,243,3.0,5.0,100,0.00,,---,0.51,VWS V14.01,2013-12-10 23:20:00,
2013-12-10 18:30:00,40.9,40.9,30.05,WSW,247,0.0,3.0,100,0.00,,---,0.51,VWS V14.01,2013-12-10 23:30:00,
2013-12-10 18:40:00,40.8,40.8,30.05,WSW,247,0.0,2.0,100,0.00,,---,0.51,VWS V14.01,2013-12-10 23:40:00,
2013-12-10 18:50:00,40.5,40.5,30.07,WSW,254,0.0,2.0,100,0.00,,---,0.51,VWS V14.01,2013-12-10 23:50:00,
2013-12-10 19:00:00,40.5,40.0,30.07,WSW,254,0.0,0.0,98,0.00,,---,0.51,VWS V14.01,2013-12-11 00:00:00,
2013-12-10 19:10:00,40.1,40.1,30.07,WSW,254,0.0,0.0,100,0.00,,---,0.51,VWS V14.01,2013-12-11 00:10:00,
2013-12-10 19:20:00,39.5,39.5,30.08,WSW,257,0.0,0.0,100,0.00,,---,0.51,VWS V14.01,2013-12-11 00:20:00,
2013-12-10 19:30:00,39.2,38.7,30.10,NNW,335,0.0,2.0,98,0.00,,---,0.51,VWS V14.01,2013-12-11 00:30:00,
2013-12-10 19:40:00,39.3,38.8,30.10,NW,320,0.0,0.0,98,0.00,,---,0.51,VWS V14.01,2013-12-11 00:40:00,
2013-12-10 19:50:00,38.6,37.6,30.10,WNW,295,0.0,0.0,96,0.00,,---,0.51,VWS V14.01,2013-12-11 00:50:00,
2013-12-10 20:00:00,38.3,37.3,30.11,WNW,298,0.0,0.0,96,0.00,,---,0.51,VWS V14.01,2013-12-11 01:00:00,
2013-12-10 20:10:00,38.2,36.4,30.11,West,278,0.0,3.0,93,0.00,,---,0.51,VWS V14.01,2013-12-11 01:10:00,
2013-12-10 20:20:00,38.0,36.2,30.12,WSW,257,0.0,6.0,93,0.00,,---,0.51,VWS V14.01,2013-12-11 01:20:00,
2013-12-10 20:30:00,37.8,35.4,30.13,West,260,0.0,0.0,91,0.00,,---,0.51,VWS V14.01,2013-12-11 01:30:00,
2013-12-10 20:40:00,37.6,35.5,30.13,West,265,0.0,0.0,92,0.00,,---,0.51,VWS V14.01,2013-12-11 01:40:00,
2013-12-10 20:50:00,37.2,34.8,30.13,West,265,0.0,0.0,91,0.00,,---,0.51,VWS V14.01,2013-12-11 01:50:00,
2013-12-10 21:00:00,36.9,34.5,30.13,West,265,0.0,0.0,91,0.00,,---,0.51,VWS V14.01,2013-12-11 02:00:00,
2013-12-10 21:10:00,36.5,33.8,30.13,West,268,0.0,2.0,90,0.00,,---,0.51,VWS V14.01,2013-12-11 02:10:00,
2013-12-10 21:20:00,36.3,33.1,30.14,WNW,287,0.0,3.0,88,0.00,,---,0.51,VWS V14.01,2013-12-11 02:20:00,
2013-12-10 21:30:00,36.0,32.5,30.14,WNW,287,0.0,0.0,87,0.00,,---,0.51,VWS V14.01,2013-12-11 02:30:00,
2013-12-10 21:40:00,35.9,32.1,30.14,WNW,287,0.0,0.0,86,0.00,,---,0.51,VWS V14.01,2013-12-11 02:40:00,
2013-12-10 21:50:00,35.5,31.7,30.15,West,270,0.0,2.0,86,0.00,,---,0.51,VWS V14.01,2013-12-11 02:50:00,
2013-12-10 22:00:00,35.2,32.0,30.15,West,270,0.0,0.0,88,0.00,,---,0.51,VWS V14.01,2013-12-11 03:00:00,
2013-12-10 22:10:00,34.7,31.8,30.15,West,270,0.0,0.0,89,0.00,,---,0.51,VWS V14.01,2013-12-11 03:10:00,
2013-12-10 22:20:00,34.3,30.8,30.16,West,270,0.0,0.0,87,0.00,,---,0.51,VWS V14.01,2013-12-11 03:20:00,
2013-12-10 22:30:00,33.7,31.4,30.16,West,270,0.0,0.0,91,0.00,,---,0.51,VWS V14.01,2013-12-11 03:30:00,
2013-12-10 22:40:00,33.1,31.3,30.16,West,270,0.0,0.0,93,0.00,,---,0.51,VWS V14.01,2013-12-11 03:40:00,
2013-12-10 22:50:00,32.7,30.9,30.17,West,270,0.0,0.0,93,0.00,,---,0.51,VWS V14.01,2013-12-11 03:50:00,
2013-12-10 23:00:00,32.5,30.2,30.17,West,270,0.0,0.0,91,0.00,,---,0.51,VWS V14.01,2013-12-11 04:00:00,
2013-12-10 23:10:00,32.2,30.7,30.17,West,270,0.0,0.0,94,0.00,,---,0.51,VWS V14.01,2013-12-11 04:10:00,
2013-12-10 23:20:00,31.6,30.1,30.18,West,270,0.0,0.0,94,0.00,,---,0.51,VWS V14.01,2013-12-11 04:20:00,
2013-12-10 23:30:00,31.3,31.3,30.18,West,270,0.0,0.0,100,0.00,,---,0.51,VWS V14.01,2013-12-11 04:30:00,
2013-12-10 23:40:00,30.7,30.7,30.18,West,270,0.0,0.0,100,0.00,,---,0.51,VWS V14.01,2013-12-11 04:40:00,
2013-12-10 23:50:00,30.3,30.0,30.19,West,270,0.0,0.0,99,0.00,,---,0.51,VWS V14.01,2013-12-11 04:50:00,